Time;durP1;ratioP1;P1;durP2;ratioP2;P2;SDS_P1;SDS_P2;PMS_P1;PMS_P2;Temp;Humidity;BMP_temperature;BMP_pressure;BME280_temperature;BME280_humidity;BME280_pressure;Samples;Min_cycle;Max_cycle;Signal;HPM_P1;HPM_P2
2022/04/30 00:02:07;;;;;;;;;;;20.80;53.10;;;;;;5075298;28;19924;-46
2022/04/30 00:04:37;;;;;;;;;;;20.80;53.00;;;;;;5075311;28;19924;-46
2022/04/30 00:07:05;;;;;;;;;;;20.80;53.00;;;;;;5075492;28;19925;-46
2022/04/30 00:09:33;;;;;;;;;;;20.80;53.00;;;;;;5084318;28;20387;-47
2022/04/30 00:12:00;;;;;;;;;;;20.80;53.00;;;;;;5095103;28;19928;-46
2022/04/30 00:14:27;;;;;;;;;;;20.80;53.00;;;;;;5094943;28;19924;-45
2022/04/30 00:16:54;;;;;;;;;;;20.80;53.00;;;;;;5093327;28;19970;-46
2022/04/30 00:19:22;;;;;;;;;;;20.80;52.90;;;;;;5095029;28;20326;-47
2022/04/30 00:21:49;;;;;;;;;;;20.80;52.90;;;;;;5095056;28;20384;-46
2022/04/30 00:24:16;;;;;;;;;;;20.80;52.90;;;;;;5094950;28;19924;-45
2022/04/30 00:26:43;;;;;;;;;;;20.70;52.80;;;;;;5095234;28;19924;-45
2022/04/30 00:29:10;;;;;;;;;;;20.80;52.90;;;;;;5094730;28;19924;-46
2022/04/30 00:31:38;;;;;;;;;;;20.80;52.90;;;;;;5095152;28;19928;-46
2022/04/30 00:34:05;;;;;;;;;;;20.80;52.90;;;;;;5094800;28;19975;-45
2022/04/30 00:36:32;;;;;;;;;;;20.70;52.80;;;;;;5095045;28;19924;-45
2022/04/30 00:38:59;;;;;;;;;;;20.80;52.90;;;;;;5077070;28;19928;-46
2022/04/30 00:41:27;;;;;;;;;;;20.70;52.70;;;;;;5094445;28;19974;-46
2022/04/30 00:43:54;;;;;;;;;;;20.70;52.70;;;;;;5095106;28;19973;-46
2022/04/30 00:46:22;;;;;;;;;;;20.70;52.70;;;;;;5094499;28;20457;-45
2022/04/30 00:48:49;;;;;;;;;;;20.70;53.30;;;;;;5094466;28;19925;-46
2022/04/30 00:51:19;;;;;;;;;;;20.70;52.70;;;;;;5094437;28;19924;-47
2022/04/30 00:53:52;;;;;;;;;;;20.80;52.80;;;;;;5094449;28;20428;-46
2022/04/30 00:56:36;;;;;;;;;;;20.70;52.70;;;;;;5094672;28;19927;-46
2022/04/30 00:59:06;;;;;;;;;;;20.70;52.70;;;;;;5094474;28;20353;-49
2022/04/30 01:01:34;;;;;;;;;;;20.70;52.70;;;;;;5094317;28;19928;-48
2022/04/30 01:04:01;;;;;;;;;;;20.70;52.70;;;;;;5094758;28;19924;-51
2022/04/30 01:06:34;;;;;;;;;;;20.70;52.70;;;;;;5093811;28;19928;-51
2022/04/30 01:09:01;;;;;;;;;;;20.70;52.70;;;;;;5087370;28;19924;-50
2022/04/30 01:11:29;;;;;;;;;;;20.70;52.70;;;;;;5074127;28;20394;-54
2022/04/30 01:13:58;;;;;;;;;;;20.70;52.70;;;;;;5089697;28;19927;-49
2022/04/30 01:16:25;;;;;;;;;;;20.70;52.60;;;;;;5093990;28;19924;-53
2022/04/30 01:18:52;;;;;;;;;;;20.70;52.60;;;;;;5094295;28;19924;-45
2022/04/30 01:21:19;;;;;;;;;;;20.70;52.60;;;;;;5093617;28;20380;-47
2022/04/30 01:23:46;;;;;;;;;;;20.70;52.60;;;;;;5093859;28;19969;-46
2022/04/30 01:26:14;;;;;;;;;;;20.70;52.60;;;;;;5093882;28;19928;-45
2022/04/30 01:28:43;;;;;;;;;;;20.70;52.60;;;;;;5093745;28;20330;-46
2022/04/30 01:39:40;;;;;;;;;;;20.70;52.50;;;;;;5031511;28;19929;-46
2022/04/30 01:42:12;;;;;;;;;;;20.70;52.50;;;;;;5035268;28;20431;-47
2022/04/30 01:44:40;;;;;;;;;;;20.70;52.50;;;;;;5051604;28;19925;-47
2022/04/30 01:47:08;;;;;;;;;;;20.70;52.50;;;;;;5051073;28;19925;-46
2022/04/30 01:49:34;;;;;;;;;;;20.70;52.50;;;;;;5051117;28;19932;-50
2022/04/30 01:52:06;;;;;;;;;;;20.70;52.50;;;;;;5051192;28;20380;-49
2022/04/30 01:54:33;;;;;;;;;;;20.70;52.50;;;;;;5051189;28;19925;-48
2022/04/30 01:57:00;;;;;;;;;;;20.70;52.50;;;;;;5051157;28;19933;-47
2022/04/30 01:59:28;;;;;;;;;;;20.70;52.50;;;;;;5050961;28;19948;-48
2022/04/30 02:01:56;;;;;;;;;;;20.70;52.50;;;;;;5042615;28;20278;-46
2022/04/30 02:04:23;;;;;;;;;;;20.70;52.50;;;;;;5031139;28;19925;-50
2022/04/30 02:06:50;;;;;;;;;;;20.70;52.50;;;;;;5031263;28;19990;-48
2022/04/30 02:09:18;;;;;;;;;;;20.70;52.50;;;;;;5030728;28;20431;-48
2022/04/30 02:11:45;;;;;;;;;;;20.70;52.50;;;;;;5030883;28;20007;-45
2022/04/30 02:14:13;;;;;;;;;;;20.70;52.40;;;;;;5030826;28;20444;-47
2022/04/30 02:16:42;;;;;;;;;;;20.70;52.40;;;;;;5066398;28;19993;-51
2022/04/30 02:19:09;;;;;;;;;;;20.70;52.50;;;;;;5093160;28;19974;-47
2022/04/30 02:21:36;;;;;;;;;;;20.70;53.00;;;;;;5093493;28;20315;-50
2022/04/30 02:24:03;;;;;;;;;;;20.60;52.30;;;;;;5093111;28;20345;-49
2022/04/30 02:26:30;;;;;;;;;;;20.70;52.40;;;;;;5093143;28;19993;-49
2022/04/30 02:28:57;;;;;;;;;;;20.70;52.40;;;;;;5093266;28;20349;-48
2022/04/30 02:31:25;;;;;;;;;;;20.60;52.40;;;;;;5093342;28;20264;-47
2022/04/30 02:33:56;;;;;;;;;;;20.60;52.30;;;;;;5093009;28;19924;-52
2022/04/30 02:36:27;;;;;;;;;;;20.70;52.40;;;;;;5093074;28;19924;-44
2022/04/30 02:38:57;;;;;;;;;;;20.70;52.40;;;;;;5092690;28;20150;-46
2022/04/30 02:41:24;;;;;;;;;;;20.70;52.40;;;;;;5095070;28;20287;-47
2022/04/30 02:43:52;;;;;;;;;;;20.70;52.40;;;;;;5096985;28;20452;-45
2022/04/30 02:46:20;;;;;;;;;;;20.60;52.30;;;;;;5096899;28;19924;-45
2022/04/30 02:48:47;;;;;;;;;;;20.60;52.30;;;;;;5097252;28;20340;-47
2022/04/30 02:51:15;;;;;;;;;;;20.60;52.30;;;;;;5096839;28;19924;-45
2022/04/30 02:53:43;;;;;;;;;;;20.60;52.30;;;;;;5096887;28;19924;-45
2022/04/30 02:56:10;;;;;;;;;;;20.60;52.30;;;;;;5096911;28;19985;-46
2022/04/30 03:01:23;;;;;;;;;;;20.60;52.20;;;;;;5076324;28;19974;-45
2022/04/30 03:03:50;;;;;;;;;;;20.60;52.20;;;;;;5076704;28;20362;-45
2022/04/30 03:06:18;;;;;;;;;;;20.60;52.20;;;;;;5089459;28;19924;-46
2022/04/30 03:08:47;;;;;;;;;;;20.60;52.20;;;;;;5091691;28;20121;-45
2022/04/30 03:11:14;;;;;;;;;;;20.60;52.20;;;;;;5076148;28;19974;-45
2022/04/30 03:13:41;;;;;;;;;;;20.60;52.20;;;;;;5076010;28;19929;-45
2022/04/30 03:21:42;;;;;;;;;;;20.60;52.20;;;;;;5096260;28;20391;-44
2022/04/30 03:24:09;;;;;;;;;;;20.60;52.20;;;;;;5096251;28;19924;-45
2022/04/30 03:26:36;;;;;;;;;;;20.60;52.20;;;;;;5096235;28;19997;-45
2022/04/30 03:29:03;;;;;;;;;;;20.60;52.20;;;;;;5096128;28;19949;-45
2022/04/30 03:31:31;;;;;;;;;;;20.60;52.20;;;;;;5096166;28;20340;-45
2022/04/30 03:33:58;;;;;;;;;;;20.60;52.20;;;;;;5096042;28;20422;-45
2022/04/30 03:36:25;;;;;;;;;;;20.60;52.10;;;;;;5096066;28;19928;-45
2022/04/30 03:38:52;;;;;;;;;;;20.60;52.20;;;;;;5096022;28;19931;-45
2022/04/30 03:41:19;;;;;;;;;;;20.60;52.20;;;;;;5095825;28;19924;-45
2022/04/30 03:43:46;;;;;;;;;;;20.60;52.10;;;;;;5095881;28;19973;-45
2022/04/30 03:46:13;;;;;;;;;;;20.60;52.10;;;;;;5096068;28;19927;-45
2022/04/30 03:48:40;;;;;;;;;;;20.60;52.10;;;;;;5077979;28;19924;-45
2022/04/30 03:51:07;;;;;;;;;;;20.60;52.10;;;;;;5096048;28;19977;-45
2022/04/30 03:53:34;;;;;;;;;;;20.60;52.10;;;;;;5094259;28;19928;-45
2022/04/30 03:56:01;;;;;;;;;;;20.60;52.10;;;;;;5095500;28;19932;-46
2022/04/30 03:58:29;;;;;;;;;;;20.60;52.10;;;;;;5095589;28;19924;-45
2022/04/30 04:00:56;;;;;;;;;;;20.60;52.10;;;;;;5094122;28;19939;-45
2022/04/30 04:03:23;;;;;;;;;;;20.60;52.10;;;;;;5095490;28;19924;-45
2022/04/30 04:05:50;;;;;;;;;;;20.60;52.00;;;;;;5095589;28;19928;-45
2022/04/30 04:08:20;;;;;;;;;;;20.60;52.00;;;;;;5094653;28;19924;-45
2022/04/30 04:10:47;;;;;;;;;;;20.60;52.00;;;;;;5075109;28;19925;-46
2022/04/30 04:18:45;;;;;;;;;;;20.60;52.00;;;;;;5095375;28;19931;-45
2022/04/30 04:21:12;;;;;;;;;;;20.60;52.00;;;;;;5094851;28;19924;-45
2022/04/30 04:26:24;;;;;;;;;;;20.60;51.90;;;;;;5094835;28;20429;-45
2022/04/30 04:28:51;;;;;;;;;;;20.60;51.90;;;;;;5095309;28;19951;-45
2022/04/30 04:31:22;;;;;;;;;;;20.60;51.80;;;;;;5094864;28;20387;-45
2022/04/30 04:33:49;;;;;;;;;;;20.70;51.90;;;;;;5094579;28;20023;-46
2022/04/30 04:36:17;;;;;;;;;;;20.70;51.90;;;;;;5094542;28;20376;-45
2022/04/30 04:38:44;;;;;;;;;;;20.70;51.80;;;;;;5094783;28;20380;-45
2022/04/30 04:41:12;;;;;;;;;;;20.70;51.80;;;;;;5094508;28;19928;-45
2022/04/30 04:43:39;;;;;;;;;;;20.70;51.80;;;;;;5094776;28;19924;-45
2022/04/30 04:46:06;;;;;;;;;;;20.70;51.80;;;;;;5094944;28;20030;-45
2022/04/30 04:48:33;;;;;;;;;;;20.70;51.70;;;;;;5094563;28;19924;-45
2022/04/30 04:51:00;;;;;;;;;;;20.70;51.70;;;;;;5094572;28;19924;-45
2022/04/30 04:53:28;;;;;;;;;;;20.70;51.70;;;;;;5094249;28;19924;-45
2022/04/30 04:55:56;;;;;;;;;;;20.70;51.70;;;;;;5094289;28;20375;-44
2022/04/30 04:58:22;;;;;;;;;;;20.70;51.70;;;;;;5093038;28;19969;-45
2022/04/30 05:00:49;;;;;;;;;;;20.70;51.60;;;;;;5094227;28;20364;-46
2022/04/30 05:03:17;;;;;;;;;;;20.70;51.60;;;;;;5093586;28;19963;-46
2022/04/30 05:05:44;;;;;;;;;;;20.80;51.60;;;;;;5094662;28;19924;-45
2022/04/30 05:08:10;;;;;;;;;;;20.80;51.60;;;;;;5094039;28;20376;-45
2022/04/30 05:10:37;;;;;;;;;;;20.80;51.60;;;;;;5073802;28;19924;-45
2022/04/30 05:13:04;;;;;;;;;;;20.80;51.60;;;;;;5089787;28;19994;-44
2022/04/30 05:15:31;;;;;;;;;;;20.80;51.50;;;;;;5093821;28;19978;-46
2022/04/30 05:17:58;;;;;;;;;;;20.80;51.50;;;;;;5093864;28;19924;-50
2022/04/30 05:20:25;;;;;;;;;;;20.80;51.40;;;;;;5093694;28;20380;-45
2022/04/30 05:23:10;;;;;;;;;;;20.80;51.40;;;;;;5093459;28;19928;-48
2022/04/30 05:25:40;;;;;;;;;;;20.80;51.30;;;;;;5094297;28;19924;-48
2022/04/30 05:28:08;;;;;;;;;;;20.90;51.40;;;;;;5094111;28;19956;-45
2022/04/30 05:30:35;;;;;;;;;;;20.90;51.40;;;;;;5093897;28;19928;-47
2022/04/30 05:33:02;;;;;;;;;;;20.90;51.30;;;;;;5094052;28;19924;-45
2022/04/30 05:35:29;;;;;;;;;;;20.90;51.30;;;;;;5093465;28;19973;-48
2022/04/30 05:37:56;;;;;;;;;;;20.90;51.30;;;;;;5093395;28;19924;-46
2022/04/30 05:40:23;;;;;;;;;;;20.90;51.30;;;;;;5093908;28;19928;-47
2022/04/30 05:42:50;;;;;;;;;;;20.90;51.20;;;;;;5093769;28;19931;-50
2022/04/30 05:45:17;;;;;;;;;;;20.90;51.20;;;;;;5093756;28;19924;-45
2022/04/30 05:47:44;;;;;;;;;;;20.90;51.20;;;;;;5093464;28;20441;-45
2022/04/30 05:50:11;;;;;;;;;;;20.90;51.20;;;;;;5093766;28;20330;-47
2022/04/30 05:52:38;;;;;;;;;;;20.90;51.20;;;;;;5093233;28;20349;-45
2022/04/30 05:55:05;;;;;;;;;;;20.90;51.20;;;;;;5091986;28;20448;-47
2022/04/30 05:57:32;;;;;;;;;;;20.90;51.10;;;;;;5093605;28;19977;-46
2022/04/30 05:59:59;;;;;;;;;;;20.90;51.10;;;;;;5093186;28;19929;-45
2022/04/30 06:02:26;;;;;;;;;;;20.90;51.10;;;;;;5093575;28;19924;-47
2022/04/30 06:04:54;;;;;;;;;;;20.90;51.10;;;;;;5075621;28;19967;-50
2022/04/30 06:07:21;;;;;;;;;;;20.90;51.00;;;;;;5093098;28;19924;-45
2022/04/30 06:09:48;;;;;;;;;;;20.90;51.00;;;;;;5080282;28;19924;-52
2022/04/30 06:12:16;;;;;;;;;;;20.90;51.00;;;;;;5073106;28;19924;-52
2022/04/30 06:14:43;;;;;;;;;;;20.90;51.00;;;;;;5072863;28;20283;-50
2022/04/30 06:17:11;;;;;;;;;;;20.90;51.00;;;;;;5088229;28;19928;-52
2022/04/30 06:19:38;;;;;;;;;;;21.00;51.00;;;;;;5097529;28;19978;-51
2022/04/30 06:22:05;;;;;;;;;;;20.90;51.00;;;;;;5097009;28;19969;-53
2022/04/30 06:24:32;;;;;;;;;;;21.00;51.00;;;;;;5075706;28;19928;-50
2022/04/30 06:26:59;;;;;;;;;;;21.00;51.00;;;;;;5077427;28;21181;-53
2022/04/30 06:29:26;;;;;;;;;;;21.00;51.00;;;;;;5077176;28;20269;-53
2022/04/30 06:31:55;;;;;;;;;;;20.90;50.90;;;;;;5076840;28;19974;-46
2022/04/30 06:34:22;;;;;;;;;;;21.00;51.00;;;;;;5076744;28;20018;-51
2022/04/30 06:36:49;;;;;;;;;;;21.00;51.00;;;;;;5076565;28;19924;-52
2022/04/30 06:39:16;;;;;;;;;;;21.00;51.00;;;;;;5076826;28;19978;-50
2022/04/30 06:41:43;;;;;;;;;;;21.00;51.00;;;;;;5077010;28;19994;-49
2022/04/30 06:44:10;;;;;;;;;;;21.00;51.00;;;;;;5076606;28;19925;-47
2022/04/30 06:46:37;;;;;;;;;;;20.90;50.80;;;;;;5076511;28;19924;-46
2022/04/30 06:49:04;;;;;;;;;;;21.00;50.90;;;;;;5076746;28;19931;-51
2022/04/30 06:51:31;;;;;;;;;;;21.00;50.90;;;;;;5075264;28;19929;-46
2022/04/30 06:59:31;;;;;;;;;;;21.00;50.80;;;;;;5056982;28;19933;-49
2022/04/30 07:02:01;;;;;;;;;;;21.00;50.80;;;;;;5056350;28;19924;-47
2022/04/30 07:04:32;;;;;;;;;;;21.00;50.80;;;;;;5062788;28;19929;-48
2022/04/30 07:07:00;;;;;;;;;;;21.00;50.70;;;;;;5076480;28;20077;-49
2022/04/30 07:09:32;;;;;;;;;;;21.00;50.70;;;;;;5065929;28;19990;-46
2022/04/30 07:12:00;;;;;;;;;;;21.00;50.70;;;;;;5056518;28;19924;-46
2022/04/30 07:14:27;;;;;;;;;;;21.00;50.60;;;;;;5055928;28;19932;-48
2022/04/30 07:16:54;;;;;;;;;;;21.00;50.60;;;;;;5056421;28;19929;-49
2022/04/30 07:19:21;;;;;;;;;;;21.10;50.70;;;;;;5055972;28;19931;-53
2022/04/30 07:21:48;;;;;;;;;;;21.10;50.60;;;;;;5055770;28;19982;-52
2022/04/30 07:24:15;;;;;;;;;;;21.10;50.60;;;;;;5080133;28;19969;-51
2022/04/30 07:26:42;;;;;;;;;;;21.10;50.50;;;;;;5096225;28;19947;-47
2022/04/30 07:29:09;;;;;;;;;;;21.00;50.40;;;;;;5096142;28;20375;-45
2022/04/30 07:31:36;;;;;;;;;;;21.00;50.40;;;;;;5096047;28;19924;-45
2022/04/30 07:34:04;;;;;;;;;;;21.10;50.40;;;;;;5095893;28;19928;-48
2022/04/30 07:36:31;;;;;;;;;;;21.10;50.40;;;;;;5096296;28;19928;-45
2022/04/30 07:38:58;;;;;;;;;;;21.10;50.30;;;;;;5095649;28;19924;-45
2022/04/30 07:41:25;;;;;;;;;;;21.10;50.30;;;;;;5078511;28;20326;-49
2022/04/30 07:43:52;;;;;;;;;;;21.10;50.20;;;;;;5077649;28;19974;-46
2022/04/30 07:46:19;;;;;;;;;;;21.20;50.90;;;;;;5078498;28;20383;-48
2022/04/30 07:48:52;;;;;;;;;;;21.20;50.30;;;;;;5095532;28;19924;-47
2022/04/30 07:51:23;;;;;;;;;;;21.20;50.20;;;;;;5095888;28;19931;-45
2022/04/30 07:53:50;;;;;;;;;;;21.20;50.20;;;;;;5096019;28;20322;-46
2022/04/30 07:56:17;;;;;;;;;;;21.20;50.10;;;;;;5095566;28;19924;-46
2022/04/30 07:58:44;;;;;;;;;;;21.20;50.10;;;;;;5095278;28;19931;-46
2022/04/30 08:01:11;;;;;;;;;;;21.20;50.10;;;;;;5095436;28;19924;-47
2022/04/30 08:03:40;;;;;;;;;;;21.20;50.10;;;;;;5095924;28;19938;-46
2022/04/30 08:06:07;;;;;;;;;;;21.20;50.00;;;;;;5095563;28;20295;-46
2022/04/30 08:08:34;;;;;;;;;;;21.30;50.10;;;;;;5094616;28;19971;-45
2022/04/30 08:11:01;;;;;;;;;;;21.30;50.00;;;;;;5095410;28;19993;-45
2022/04/30 08:13:28;;;;;;;;;;;21.30;49.90;;;;;;5095367;28;19924;-45
2022/04/30 08:15:55;;;;;;;;;;;21.30;49.90;;;;;;5095160;28;19924;-45
2022/04/30 08:18:24;;;;;;;;;;;21.30;49.90;;;;;;5094740;28;20019;-45
2022/04/30 08:20:51;;;;;;;;;;;21.30;49.80;;;;;;5094962;28;19924;-45
2022/04/30 08:23:18;;;;;;;;;;;21.40;49.80;;;;;;5094911;28;19925;-47
2022/04/30 08:25:45;;;;;;;;;;;21.30;49.80;;;;;;5077060;28;19924;-45
2022/04/30 08:28:12;;;;;;;;;;;21.40;49.80;;;;;;5094949;28;19971;-45
2022/04/30 08:30:39;;;;;;;;;;;21.40;49.80;;;;;;5095135;28;20291;-45
2022/04/30 08:33:06;;;;;;;;;;;21.40;49.70;;;;;;5095319;28;19925;-45
2022/04/30 08:35:33;;;;;;;;;;;21.40;49.80;;;;;;5087292;28;19935;-45
2022/04/30 08:38:07;;;;;;;;;;;21.40;49.70;;;;;;5074009;28;20018;-45
2022/04/30 08:40:35;;;;;;;;;;;21.40;49.70;;;;;;5074581;28;20353;-45
2022/04/30 08:43:08;;;;;;;;;;;21.40;49.70;;;;;;5081326;28;19924;-45
2022/04/30 08:45:36;;;;;;;;;;;21.50;49.80;;;;;;5094607;28;19932;-45
2022/04/30 08:48:07;;;;;;;;;;;21.40;49.60;;;;;;5094519;28;19928;-45
2022/04/30 08:50:34;;;;;;;;;;;21.50;49.70;;;;;;5094583;28;19928;-45
2022/04/30 08:53:02;;;;;;;;;;;21.50;49.70;;;;;;5094633;28;19928;-46
2022/04/30 08:55:29;;;;;;;;;;;21.50;49.70;;;;;;5094334;28;19928;-48
2022/04/30 08:57:56;;;;;;;;;;;21.50;49.70;;;;;;5094394;28;19924;-45
2022/04/30 09:00:23;;;;;;;;;;;21.50;49.70;;;;;;5094189;28;19928;-46
2022/04/30 09:02:54;;;;;;;;;;;21.50;49.60;;;;;;5094221;28;19924;-47
2022/04/30 09:05:22;;;;;;;;;;;21.50;49.60;;;;;;5094480;28;19924;-45
2022/04/30 09:07:53;;;;;;;;;;;21.50;49.60;;;;;;5094230;28;19924;-45
2022/04/30 09:10:21;;;;;;;;;;;21.60;49.60;;;;;;5076138;28;19931;-45
2022/04/30 09:12:48;;;;;;;;;;;21.60;50.20;;;;;;5074345;28;19974;-45
2022/04/30 09:15:15;;;;;;;;;;;21.60;49.50;;;;;;5073845;28;19924;-45
2022/04/30 09:17:42;;;;;;;;;;;21.60;49.40;;;;;;5077464;28;20276;-45
2022/04/30 09:20:16;;;;;;;;;;;21.60;49.40;;;;;;5086164;28;19924;-49
2022/04/30 09:22:44;;;;;;;;;;;21.70;49.50;;;;;;5087726;28;19957;-45
2022/04/30 09:25:15;;;;;;;;;;;21.70;49.40;;;;;;5079633;28;19971;-43
2022/04/30 09:28:00;;;;;;;;;;;21.80;49.40;;;;;;5073821;28;19925;-50
2022/04/30 09:30:29;;;;;;;;;;;21.80;49.70;;;;;;5073240;28;20384;-48
2022/04/30 09:32:57;;;;;;;;;;;21.80;49.70;;;;;;5073453;28;20011;-44
2022/04/30 09:38:10;;;;;;;;;;;21.90;49.90;;;;;;5073669;28;19925;-52
2022/04/30 09:40:37;;;;;;;;;;;21.90;49.80;;;;;;5091104;28;19931;-50
2022/04/30 09:43:15;;;;;;;;;;;21.90;49.80;;;;;;5091964;28;20021;-51
2022/04/30 09:45:42;;;;;;;;;;;22.00;49.90;;;;;;5078239;28;19928;-47
2022/04/30 09:56:36;;;;;;;;;;;22.00;50.40;;;;;;5094232;28;19930;-50
2022/04/30 09:59:10;;;;;;;;;;;22.10;50.60;;;;;;5103010;28;19928;-44
2022/04/30 10:01:39;;;;;;;;;;;22.10;50.70;;;;;;5107817;28;19930;-46
2022/04/30 10:04:11;;;;;;;;;;;22.10;50.70;;;;;;5093766;28;19924;-49
2022/04/30 10:06:42;;;;;;;;;;;22.10;50.70;;;;;;5084475;28;19931;-50
2022/04/30 10:09:17;;;;;;;;;;;22.10;50.70;;;;;;5098260;28;20307;-45
2022/04/30 10:11:56;;;;;;;;;;;22.10;50.80;;;;;;5110097;28;19954;-47
2022/04/30 10:14:33;;;;;;;;;;;22.10;50.70;;;;;;5099829;28;19970;-50
2022/04/30 10:17:13;;;;;;;;;;;22.10;50.80;;;;;;5113783;28;20283;-46
2022/04/30 10:19:41;;;;;;;;;;;22.10;50.80;;;;;;5096140;28;20383;-50
2022/04/30 10:22:09;;;;;;;;;;;22.10;50.90;;;;;;5107954;28;19924;-49
2022/04/30 10:24:45;;;;;;;;;;;22.10;50.90;;;;;;5101946;28;19966;-44
2022/04/30 10:27:13;;;;;;;;;;;22.10;50.90;;;;;;5109493;28;19977;-46
2022/04/30 10:29:52;;;;;;;;;;;22.10;50.90;;;;;;5109580;28;19924;-48
2022/04/30 10:32:35;;;;;;;;;;;22.20;51.00;;;;;;5099387;28;19928;-44
2022/04/30 10:35:03;;;;;;;;;;;22.20;51.10;;;;;;5099476;28;19924;-45
2022/04/30 10:37:32;;;;;;;;;;;22.10;50.90;;;;;;5109152;28;19980;-44
2022/04/30 10:40:00;;;;;;;;;;;22.20;51.00;;;;;;5080083;28;19967;-45
2022/04/30 10:42:28;;;;;;;;;;;22.20;51.20;;;;;;5105640;28;19986;-44
2022/04/30 10:44:55;;;;;;;;;;;22.20;51.20;;;;;;5091807;28;20357;-47
2022/04/30 10:47:22;;;;;;;;;;;22.10;51.20;;;;;;5094471;28;19935;-45
2022/04/30 10:49:53;;;;;;;;;;;22.20;51.20;;;;;;5100469;28;19932;-44
2022/04/30 10:52:25;;;;;;;;;;;22.20;51.50;;;;;;5095468;28;20367;-48
2022/04/30 10:54:56;;;;;;;;;;;22.20;51.80;;;;;;5100168;28;19935;-44
2022/04/30 10:57:23;;;;;;;;;;;22.20;51.40;;;;;;5092337;28;19932;-44
2022/04/30 10:59:57;;;;;;;;;;;22.10;51.20;;;;;;5094304;28;19924;-45
2022/04/30 11:02:28;;;;;;;;;;;22.10;51.30;;;;;;5101973;28;19923;-46
2022/04/30 11:04:55;;;;;;;;;;;22.10;51.40;;;;;;5105511;28;19924;-45
2022/04/30 11:07:23;;;;;;;;;;;22.10;51.60;;;;;;5096650;28;19928;-47
2022/04/30 11:09:50;;;;;;;;;;;22.10;51.50;;;;;;5082719;28;20445;-48
2022/04/30 11:12:17;;;;;;;;;;;22.10;51.30;;;;;;5075712;28;20376;-47
2022/04/30 11:14:47;;;;;;;;;;;22.10;51.20;;;;;;5076245;28;19925;-47
2022/04/30 11:17:14;;;;;;;;;;;22.10;51.10;;;;;;5076026;28;19967;-46
2022/04/30 11:19:42;;;;;;;;;;;22.10;50.90;;;;;;5078658;28;19978;-48
2022/04/30 11:22:09;;;;;;;;;;;22.10;50.90;;;;;;5096003;28;19924;-49
2022/04/30 11:24:39;;;;;;;;;;;22.10;50.70;;;;;;5086271;28;19925;-49
2022/04/30 11:27:10;;;;;;;;;;;22.10;50.60;;;;;;5076386;28;20334;-47
2022/04/30 11:29:47;;;;;;;;;;;22.10;50.50;;;;;;5076392;28;19970;-47
2022/04/30 11:32:21;;;;;;;;;;;22.10;50.40;;;;;;5086639;28;19924;-47
2022/04/30 11:34:49;;;;;;;;;;;22.10;50.30;;;;;;5095976;28;19969;-46
2022/04/30 11:37:16;;;;;;;;;;;22.10;50.30;;;;;;5096101;28;19981;-46
2022/04/30 11:39:43;;;;;;;;;;;22.10;50.10;;;;;;5096257;28;19989;-46
2022/04/30 11:42:11;;;;;;;;;;;22.10;50.10;;;;;;5095650;28;19924;-46
2022/04/30 11:44:38;;;;;;;;;;;22.10;50.10;;;;;;5096308;28;19979;-48
2022/04/30 11:47:06;;;;;;;;;;;22.10;50.10;;;;;;5095901;28;19954;-51
2022/04/30 11:49:33;;;;;;;;;;;22.10;49.90;;;;;;5095899;28;19974;-47
2022/04/30 11:52:14;;;;;;;;;;;22.10;50.00;;;;;;5095196;28;20403;-49
2022/04/30 11:54:41;;;;;;;;;;;22.10;49.80;;;;;;5077980;28;19924;-49
2022/04/30 11:57:08;;;;;;;;;;;22.10;49.80;;;;;;5095612;28;19928;-52
2022/04/30 11:59:37;;;;;;;;;;;22.10;49.80;;;;;;5095798;28;19924;-48
2022/04/30 12:02:05;;;;;;;;;;;22.10;49.70;;;;;;5095207;28;19967;-50
2022/04/30 12:04:35;;;;;;;;;;;22.10;49.70;;;;;;5095651;28;20373;-49
2022/04/30 12:07:03;;;;;;;;;;;22.10;49.60;;;;;;5095657;28;19982;-47
2022/04/30 12:09:31;;;;;;;;;;;22.10;49.60;;;;;;5084535;28;19924;-49
2022/04/30 12:12:00;;;;;;;;;;;22.10;49.50;;;;;;5075113;28;19932;-50
2022/04/30 12:14:27;;;;;;;;;;;22.10;49.50;;;;;;5073897;28;20276;-52
2022/04/30 12:16:57;;;;;;;;;;;22.10;49.40;;;;;;5075074;28;19924;-48
2022/04/30 12:25:09;;;;;;;;;;;22.10;49.40;;;;;;5074755;28;19978;-46
2022/04/30 12:27:37;;;;;;;;;;;22.10;49.40;;;;;;5078161;28;20303;-49
2022/04/30 12:30:24;;;;;;;;;;;22.10;49.40;;;;;;5095028;28;19947;-46
2022/04/30 12:32:58;;;;;;;;;;;22.10;49.40;;;;;;5095029;28;19924;-46
2022/04/30 12:35:35;;;;;;;;;;;22.10;49.40;;;;;;5094729;28;19924;-46
2022/04/30 12:38:08;;;;;;;;;;;22.10;49.40;;;;;;5094796;28;19924;-47
2022/04/30 12:40:36;;;;;;;;;;;22.10;49.40;;;;;;5094796;28;19924;-47
2022/04/30 12:43:04;;;;;;;;;;;22.10;49.30;;;;;;5094906;28;19993;-46
2022/04/30 12:45:34;;;;;;;;;;;22.10;49.30;;;;;;5094820;28;19924;-51
2022/04/30 12:48:03;;;;;;;;;;;22.10;49.40;;;;;;5094611;28;19928;-52
2022/04/30 12:50:32;;;;;;;;;;;22.10;49.30;;;;;;5094351;28;20395;-54
2022/04/30 12:52:59;;;;;;;;;;;22.10;49.30;;;;;;5095001;28;19947;-51
2022/04/30 12:55:29;;;;;;;;;;;22.10;49.30;;;;;;5094344;28;20432;-52
2022/04/30 12:57:56;;;;;;;;;;;22.10;49.30;;;;;;5094384;28;19924;-52
2022/04/30 13:00:23;;;;;;;;;;;22.10;49.30;;;;;;5094325;28;19928;-47
2022/04/30 13:02:51;;;;;;;;;;;22.10;49.30;;;;;;5092669;28;20206;-51
2022/04/30 13:05:18;;;;;;;;;;;22.10;49.20;;;;;;5093941;28;19924;-50
2022/04/30 13:07:45;;;;;;;;;;;22.10;49.20;;;;;;5093366;28;20364;-48
2022/04/30 13:15:44;;;;;;;;;;;22.20;49.10;;;;;;5093302;28;19928;-45
2022/04/30 13:18:12;;;;;;;;;;;22.20;49.10;;;;;;5093299;28;19967;-45
2022/04/30 13:20:39;;;;;;;;;;;22.20;49.10;;;;;;5093104;28;19924;-44
2022/04/30 13:23:06;;;;;;;;;;;22.20;49.10;;;;;;5092746;28;19928;-47
2022/04/30 13:25:33;;;;;;;;;;;22.20;49.10;;;;;;5091619;28;19924;-47
2022/04/30 13:28:00;;;;;;;;;;;22.10;49.00;;;;;;5093135;28;19969;-47
2022/04/30 13:30:30;;;;;;;;;;;22.10;49.00;;;;;;5093506;28;19963;-47
2022/04/30 13:32:57;;;;;;;;;;;22.10;49.00;;;;;;5093917;28;19924;-45
2022/04/30 13:35:24;;;;;;;;;;;22.10;49.00;;;;;;5093912;28;20422;-45
2022/04/30 13:37:54;;;;;;;;;;;22.10;49.00;;;;;;5093874;28;20326;-45
2022/04/30 13:40:21;;;;;;;;;;;22.10;49.00;;;;;;5093664;28;19970;-46
2022/04/30 13:42:48;;;;;;;;;;;22.10;49.00;;;;;;5093607;28;20018;-45
2022/04/30 13:45:15;;;;;;;;;;;22.10;49.10;;;;;;5093457;28;19924;-45
2022/04/30 13:47:42;;;;;;;;;;;22.10;49.10;;;;;;5093670;28;20399;-45
2022/04/30 13:50:10;;;;;;;;;;;22.10;49.10;;;;;;5093725;28;20299;-45
2022/04/30 13:52:38;;;;;;;;;;;22.10;49.20;;;;;;5093379;28;20388;-46
2022/04/30 13:55:09;;;;;;;;;;;22.10;49.20;;;;;;5093940;28;19931;-45
2022/04/30 13:57:36;;;;;;;;;;;22.10;49.20;;;;;;5093439;28;19969;-45
2022/04/30 14:00:06;;;;;;;;;;;22.10;49.10;;;;;;5093883;28;19924;-45
2022/04/30 14:02:33;;;;;;;;;;;22.00;49.10;;;;;;5093282;28;20368;-46
2022/04/30 14:05:00;;;;;;;;;;;22.00;49.00;;;;;;5093718;28;20372;-46
2022/04/30 14:07:27;;;;;;;;;;;22.10;49.10;;;;;;5093167;28;19924;-46
2022/04/30 14:09:54;;;;;;;;;;;22.10;49.10;;;;;;5079184;28;19970;-46
2022/04/30 14:12:41;;;;;;;;;;;22.10;49.10;;;;;;5077078;28;20005;-45
2022/04/30 14:15:09;;;;;;;;;;;22.10;49.00;;;;;;5093836;28;19924;-48
2022/04/30 14:20:22;;;;;;;;;;;22.10;49.00;;;;;;5091601;28;19924;-46
2022/04/30 14:22:50;;;;;;;;;;;22.10;49.00;;;;;;5092834;28;19924;-44
2022/04/30 14:25:17;;;;;;;;;;;22.10;49.00;;;;;;5093640;28;19989;-45
2022/04/30 14:27:47;;;;;;;;;;;22.10;49.00;;;;;;5093238;28;20375;-48
2022/04/30 14:30:18;;;;;;;;;;;22.10;49.00;;;;;;5093386;28;20368;-48
2022/04/30 14:32:45;;;;;;;;;;;22.10;49.00;;;;;;5092971;28;19977;-46
2022/04/30 14:35:12;;;;;;;;;;;22.10;49.60;;;;;;5093275;28;19924;-46
2022/04/30 14:37:39;;;;;;;;;;;22.10;49.00;;;;;;5095262;28;19924;-45
2022/04/30 14:40:09;;;;;;;;;;;22.10;49.10;;;;;;5097628;28;19924;-47
2022/04/30 14:42:37;;;;;;;;;;;22.10;49.00;;;;;;5092474;28;19970;-45
2022/04/30 14:45:04;;;;;;;;;;;22.10;49.10;;;;;;5076745;28;19931;-45
2022/04/30 14:47:31;;;;;;;;;;;22.00;49.00;;;;;;5076469;28;19929;-45
2022/04/30 14:50:01;;;;;;;;;;;22.00;49.00;;;;;;5076468;28;19933;-45
2022/04/30 14:52:28;;;;;;;;;;;22.00;49.00;;;;;;5076478;28;19946;-48
2022/04/30 14:54:56;;;;;;;;;;;22.00;49.00;;;;;;5076699;28;19925;-46
2022/04/30 14:57:24;;;;;;;;;;;22.00;49.10;;;;;;5076076;28;19931;-47
2022/04/30 14:59:51;;;;;;;;;;;22.00;49.10;;;;;;5076372;28;19928;-46
2022/04/30 15:02:18;;;;;;;;;;;22.00;49.00;;;;;;5076706;28;20265;-45
2022/04/30 15:04:45;;;;;;;;;;;22.00;49.00;;;;;;5076568;28;19925;-45
2022/04/30 15:07:14;;;;;;;;;;;22.00;49.10;;;;;;5076258;28;19928;-46
2022/04/30 15:09:41;;;;;;;;;;;22.00;49.10;;;;;;5086509;28;19974;-46
2022/04/30 15:12:09;;;;;;;;;;;22.00;49.10;;;;;;5096836;28;19960;-45
2022/04/30 15:14:36;;;;;;;;;;;22.00;49.20;;;;;;5096663;28;19978;-50
2022/04/30 15:17:03;;;;;;;;;;;22.00;49.20;;;;;;5094834;28;19924;-50
2022/04/30 15:19:30;;;;;;;;;;;22.00;49.20;;;;;;5096248;28;20422;-46